Time;durP1;ratioP1;P1;durP2;ratioP2;P2;SDS_P1;SDS_P2;PMS_P1;PMS_P2;Temp;Humidity;BMP_temperature;BMP_pressure;BME280_temperature;BME280_humidity;BME280_pressure;Samples;Min_cycle;Max_cycle;Signal;HPM_P1;HPM_P2
2022/01/12 00:00:29;;;;;;;10.07;8.02;;;1.90;99.90;;;;;;5032988;28;20053;-90
2022/01/12 00:02:56;;;;;;;11.85;8.88;;;2.00;99.90;;;;;;5032211;28;20088;-90
2022/01/12 00:05:24;;;;;;;11.25;8.38;;;2.00;99.90;;;;;;5032524;28;20049;-90
2022/01/12 00:07:51;;;;;;;13.10;8.70;;;2.00;99.90;;;;;;5033978;28;20046;-90
2022/01/12 00:10:19;;;;;;;12.23;8.75;;;1.90;99.90;;;;;;5032993;28;20053;-90
2022/01/12 00:12:46;;;;;;;13.43;8.95;;;1.80;99.90;;;;;;5033034;28;20045;-90
2022/01/12 00:15:14;;;;;;;12.88;8.80;;;1.80;99.90;;;;;;5032680;28;20089;-89
2022/01/12 00:17:42;;;;;;;12.18;8.43;;;1.90;99.90;;;;;;5032423;28;20085;-90
2022/01/12 00:20:09;;;;;;;15.20;10.25;;;1.90;99.90;;;;;;5033322;28;20494;-90
2022/01/12 00:22:38;;;;;;;15.75;10.70;;;1.90;99.90;;;;;;5032281;28;20136;-90
2022/01/12 00:33:16;;;;;;;17.27;10.75;;;1.70;99.90;;;;;;5034009;28;20045;-90
2022/01/12 00:35:48;;;;;;;19.20;10.63;;;1.80;99.90;;;;;;5037442;28;20474;-90
2022/01/12 00:38:17;;;;;;;14.13;10.18;;;1.80;99.90;;;;;;5035533;28;20059;-89
2022/01/12 00:40:47;;;;;;;14.35;10.43;;;1.80;99.90;;;;;;5032350;28;20072;-89
2022/01/12 00:43:16;;;;;;;15.63;10.23;;;1.90;99.90;;;;;;5033548;28;20047;-90
2022/01/12 00:45:45;;;;;;;15.82;10.25;;;1.80;99.90;;;;;;5031959;28;20050;-90
2022/01/12 00:48:16;;;;;;;17.05;10.13;;;1.90;99.90;;;;;;5032496;28;20050;-90
2022/01/12 00:50:45;;;;;;;13.75;9.52;;;1.90;99.90;;;;;;5031973;28;20085;-90
2022/01/12 00:53:12;;;;;;;17.58;10.70;;;2.00;99.90;;;;;;5032920;28;20064;-89
2022/01/12 00:55:39;;;;;;;15.10;10.70;;;2.00;99.90;;;;;;5031800;28;20412;-89
2022/01/12 00:58:05;;;;;;;15.48;10.98;;;2.00;99.90;;;;;;5032116;28;20057;-90
2022/01/12 01:00:33;;;;;;;20.95;12.10;;;2.00;99.90;;;;;;5032981;28;20556;-90
2022/01/12 01:03:00;;;;;;;17.67;11.30;;;1.90;99.90;;;;;;5032736;28;20049;-90
2022/01/12 01:05:31;;;;;;;17.08;11.05;;;1.80;99.90;;;;;;5031905;28;20053;-90
2022/01/12 01:07:58;;;;;;;13.07;9.80;;;1.80;99.90;;;;;;5032195;28;20134;-90
2022/01/12 01:10:41;;;;;;;15.38;10.75;;;1.80;99.90;;;;;;5032169;28;20041;-90
2022/01/12 01:13:09;;;;;;;;;;;1.80;99.90;;;;;;5032512;28;20056;-90
2022/01/12 01:16:23;;;;;;;16.25;10.30;;;1.90;99.90;;;;;;5034154;28;19935;-90
2022/01/12 01:26:47;;;;;;;15.00;9.82;;;1.90;99.90;;;;;;5036754;28;20049;-90
2022/01/12 01:29:14;;;;;;;13.45;10.07;;;2.00;99.90;;;;;;5036674;28;20050;-90
2022/01/12 01:31:43;;;;;;;14.10;9.82;;;2.00;99.90;;;;;;5035674;28;20064;-90
2022/01/12 01:34:13;;;;;;;19.75;11.73;;;2.00;99.90;;;;;;5036904;28;20041;-90
2022/01/12 01:36:49;;;;;;;13.98;10.02;;;2.00;99.90;;;;;;5035380;28;20075;-90
2022/01/12 01:39:20;;;;;;;14.05;10.07;;;2.00;99.90;;;;;;5035501;28;20458;-89
2022/01/12 01:41:54;;;;;;;13.45;9.90;;;2.00;99.90;;;;;;5035448;28;20480;-90
2022/01/12 01:53:16;;;;;;;12.88;9.55;;;2.00;99.90;;;;;;5036783;28;20085;-90
2022/01/12 01:55:28;;;;;;;13.50;9.20;;;1.90;99.90;;;;;;5036071;28;20048;-90
2022/01/12 01:57:55;;;;;;;16.35;9.45;;;1.90;99.90;;;;;;5034990;28;20062;-90
2022/01/12 02:00:25;;;;;;;14.02;9.15;;;1.90;99.90;;;;;;5035134;28;20095;-89
2022/01/12 02:02:55;;;;;;;12.38;9.57;;;1.90;99.90;;;;;;5036370;28;20092;-90
2022/01/12 02:05:22;;;;;;;15.52;9.45;;;2.00;99.90;;;;;;5035082;28;20077;-90
2022/01/12 02:07:49;;;;;;;11.93;8.90;;;2.00;99.90;;;;;;5036150;28;20053;-90
2022/01/12 02:10:16;;;;;;;10.95;8.85;;;1.90;99.90;;;;;;5034656;28;20515;-89
2022/01/12 02:12:42;;;;;;;16.15;9.70;;;1.80;99.90;;;;;;5035929;28;20057;-90
2022/01/12 02:15:19;;;;;;;13.20;9.13;;;1.80;99.90;;;;;;5034935;28;20053;-90
2022/01/12 02:18:02;;;;;;;13.60;9.38;;;1.70;99.90;;;;;;5034518;28;20077;-88
2022/01/12 02:39:41;;;;;;;21.13;11.23;;;1.60;99.90;;;;;;5035652;28;20045;-90
2022/01/12 02:40:00;;;;;;;13.95;10.55;;;1.60;99.90;;;;;;5035748;28;20125;-90
2022/01/12 02:42:27;;;;;;;13.70;9.63;;;1.70;99.90;;;;;;5034602;28;20053;-90
2022/01/12 02:50:57;;;;;;;13.45;9.23;;;1.50;99.90;;;;;;5035481;28;20494;-89
2022/01/12 02:53:40;;;;;;;11.90;9.23;;;1.40;99.90;;;;;;5034518;28;20133;-90
2022/01/12 02:56:29;;;;;;;13.40;9.30;;;1.40;99.90;;;;;;5034020;28;20053;-89
2022/01/12 02:58:59;;;;;;;13.35;9.20;;;1.40;99.90;;;;;;5034431;28;20133;-90
2022/01/12 03:04:00;;;;;;;14.25;9.45;;;1.40;99.90;;;;;;5037872;28;20084;-90
2022/01/12 03:06:31;;;;;;;17.98;10.32;;;1.40;99.90;;;;;;5053018;28;20053;-90
2022/01/12 03:08:58;;;;;;;12.85;9.70;;;1.40;99.90;;;;;;5037652;28;20077;-90
2022/01/12 03:11:27;;;;;;;17.67;10.15;;;1.30;99.90;;;;;;5033961;28;20103;-91
2022/01/12 03:13:54;;;;;;;15.80;9.30;;;1.10;99.90;;;;;;5034098;28;20049;-90
2022/01/12 03:16:24;;;;;;;14.02;8.93;;;1.00;99.90;;;;;;5033904;28;20056;-90
2022/01/12 03:18:57;;;;;;;14.05;9.43;;;1.00;99.90;;;;;;5033716;28;20084;-90
2022/01/12 03:21:26;;;;;;;11.83;9.13;;;1.00;99.90;;;;;;5033452;28;20498;-90
2022/01/12 03:23:54;;;;;;;12.63;8.93;;;1.00;99.90;;;;;;5034776;28;20284;-90
2022/01/12 03:26:22;;;;;;;14.02;10.30;;;0.90;99.90;;;;;;5033500;28;20055;-90
2022/01/12 03:28:53;;;;;;;9.95;8.35;;;0.90;99.90;;;;;;5033874;28;20072;-90
2022/01/12 03:31:29;;;;;;;13.07;9.57;;;0.80;99.90;;;;;;5034422;28;20067;-90
2022/01/12 03:37:14;;;;;;;15.00;10.35;;;0.80;99.90;;;;;;5034205;28;20068;-90
2022/01/12 03:39:30;;;;;;;16.60;10.75;;;0.60;99.90;;;;;;5034183;28;20057;-90
2022/01/12 03:41:56;;;;;;;16.67;10.48;;;0.70;99.90;;;;;;5032885;28;20053;-90
2022/01/12 03:44:23;;;;;;;21.27;11.40;;;0.60;99.90;;;;;;5033021;28;20072;-89
2022/01/12 03:46:52;;;;;;;19.13;12.00;;;0.60;99.90;;;;;;5033164;28;20054;-90
2022/01/12 03:49:20;;;;;;;16.10;10.02;;;0.40;99.90;;;;;;5034138;28;20132;-90
2022/01/12 03:51:48;;;;;;;19.58;11.30;;;0.50;99.90;;;;;;5032942;28;20057;-90
2022/01/12 03:54:16;;;;;;;16.90;10.57;;;0.60;99.90;;;;;;5032673;28;20505;-90
2022/01/12 03:56:43;;;;;;;16.27;10.75;;;0.60;99.90;;;;;;5033745;28;20053;-90
2022/01/12 03:59:10;;;;;;;20.85;11.48;;;0.60;99.90;;;;;;5034040;28;20041;-90
2022/01/12 04:01:37;;;;;;;17.02;10.95;;;0.60;99.90;;;;;;5032945;28;20053;-90
2022/01/12 04:04:17;;;;;;;17.48;11.00;;;0.60;99.90;;;;;;5033180;28;20053;-90
2022/01/12 04:09:45;;;;;;;15.65;10.55;;;0.60;99.90;;;;;;5033695;28;20057;-90
2022/01/12 04:12:15;;;;;;;19.08;11.38;;;0.60;99.90;;;;;;5032883;28;20498;-90
2022/01/12 04:14:42;;;;;;;21.73;12.52;;;0.60;99.90;;;;;;5033599;28;20052;-90
2022/01/12 04:17:09;;;;;;;16.50;11.48;;;0.60;99.90;;;;;;5033513;28;20055;-90
2022/01/12 04:19:36;;;;;;;17.02;11.80;;;0.70;99.90;;;;;;5032822;28;20466;-90
2022/01/12 04:23:16;;;;;;;17.98;11.05;;;0.70;99.90;;;;;;5038634;28;20049;-90
2022/01/12 04:24:53;;;;;;;19.52;11.57;;;0.70;99.90;;;;;;5034045;28;20049;-90
2022/01/12 04:27:20;;;;;;;18.60;11.63;;;0.70;99.90;;;;;;5033282;28;20143;-88
2022/01/12 04:29:48;;;;;;;18.65;11.50;;;0.70;99.90;;;;;;5032216;28;20055;-90
2022/01/12 04:32:15;;;;;;;17.20;10.52;;;0.70;99.90;;;;;;5032426;28;20103;-90
2022/01/12 04:34:42;;;;;;;18.58;10.73;;;0.70;99.90;;;;;;5033349;28;20049;-90
2022/01/12 04:37:08;;;;;;;13.82;10.02;;;0.70;99.90;;;;;;5032597;28;20049;-90
2022/01/12 04:39:35;;;;;;;22.13;12.10;;;0.60;99.90;;;;;;5033431;28;20149;-90
2022/01/12 04:42:02;;;;;;;19.17;10.63;;;0.50;99.90;;;;;;5033134;28;20049;-90
2022/01/12 04:44:30;;;;;;;20.98;13.43;;;0.50;99.90;;;;;;5032643;28;20162;-90
2022/01/12 04:47:06;;;;;;;22.45;17.52;;;0.50;99.90;;;;;;5033415;28;20064;-90
2022/01/12 04:52:03;;;;;;;16.05;10.80;;;0.50;99.90;;;;;;5032925;28;20053;-90
2022/01/12 04:54:30;;;;;;;19.60;11.80;;;0.40;99.90;;;;;;5031898;28;20071;-90
2022/01/12 04:56:57;;;;;;;16.90;10.98;;;0.40;99.90;;;;;;5032317;28;20054;-90
2022/01/12 04:59:24;;;;;;;15.50;10.77;;;0.30;99.90;;;;;;5032243;28;20045;-90
2022/01/12 05:01:57;;;;;;;19.83;11.55;;;0.30;99.90;;;;;;5031885;28;20060;-91
2022/01/12 05:07:26;;;;;;;15.95;10.60;;;0.20;99.90;;;;;;5032936;28;20092;-91
2022/01/12 05:12:52;;;;;;;18.85;10.80;;;0.10;99.90;;;;;;5033102;28;20054;-90
2022/01/12 05:15:30;;;;;;;19.48;11.05;;;0.10;99.90;;;;;;5031582;28;20124;-90
2022/01/12 05:17:57;;;;;;;25.80;12.52;;;0.10;99.90;;;;;;5033133;28;20508;-90
2022/01/12 05:20:24;;;;;;;21.88;12.20;;;0.10;99.90;;;;;;5032577;28;20132;-90
2022/01/12 05:22:51;;;;;;;20.80;12.15;;;0.10;99.90;;;;;;5032257;28;20398;-90
2022/01/12 05:25:18;;;;;;;19.60;10.70;;;0.20;99.90;;;;;;5032179;28;20045;-91
2022/01/12 05:27:46;;;;;;;18.02;11.90;;;0.20;99.90;;;;;;5032129;28;20121;-91
2022/01/12 05:30:14;;;;;;;21.58;11.10;;;0.20;99.90;;;;;;5031968;28;20068;-91
2022/01/12 05:32:42;;;;;;;16.88;11.32;;;0.10;99.90;;;;;;5031957;28;20430;-90
2022/01/12 05:35:11;;;;;;;20.00;11.48;;;0.10;99.90;;;;;;5039966;28;20048;-90
2022/01/12 05:37:40;;;;;;;18.83;11.20;;;0.10;99.90;;;;;;5048080;28;20085;-91
2022/01/12 05:40:08;;;;;;;19.27;11.68;;;0.10;99.90;;;;;;5033226;28;20049;-90
2022/01/12 05:42:36;;;;;;;21.20;12.02;;;0.20;99.90;;;;;;5031578;28;20060;-90
2022/01/12 05:45:05;;;;;;;24.45;14.73;;;0.20;99.90;;;;;;5032646;28;20160;-91
2022/01/12 05:50:02;;;;;;;28.95;15.82;;;0.30;99.90;;;;;;5032989;28;20054;-90
2022/01/12 05:52:28;;;;;;;23.58;15.70;;;0.20;99.90;;;;;;5031659;28;20068;-90
2022/01/12 05:54:55;;;;;;;21.08;14.35;;;0.20;99.90;;;;;;5031461;28;20067;-90
2022/01/12 05:57:22;;;;;;;20.17;13.40;;;0.30;99.90;;;;;;5031430;28;20057;-90
2022/01/12 05:59:49;;;;;;;21.17;12.98;;;0.30;99.90;;;;;;5031883;28;20045;-90
2022/01/12 06:02:15;;;;;;;20.30;13.02;;;0.30;99.90;;;;;;5033160;28;20053;-91
2022/01/12 06:04:43;;;;;;;20.35;11.68;;;0.30;99.90;;;;;;5035191;28;20054;-91
2022/01/12 06:07:09;;;;;;;21.42;13.82;;;0.30;99.90;;;;;;5036466;28;20067;-90
2022/01/12 06:09:36;;;;;;;17.80;11.30;;;0.30;99.90;;;;;;5035143;28;20075;-89
2022/01/12 06:12:03;;;;;;;20.73;12.10;;;0.30;99.90;;;;;;5035014;28;20057;-91
2022/01/12 06:14:30;;;;;;;22.50;13.43;;;0.20;99.90;;;;;;5035150;28;20054;-90
2022/01/12 06:16:57;;;;;;;20.13;13.88;;;0.30;99.90;;;;;;5035301;28;20057;-91
2022/01/12 06:19:24;;;;;;;24.25;15.50;;;0.20;99.90;;;;;;5034921;28;20483;-91
2022/01/12 06:21:51;;;;;;;28.77;16.77;;;0.30;99.90;;;;;;5034606;28;20136;-90
2022/01/12 06:24:18;;;;;;;28.13;16.17;;;0.40;99.90;;;;;;5034728;28;20049;-90
2022/01/12 06:26:46;;;;;;;30.23;17.33;;;0.30;99.90;;;;;;5035833;28;20053;-91
2022/01/12 06:31:50;;;;;;;30.13;15.68;;;0.20;99.90;;;;;;5035793;28;20049;-91
2022/01/12 06:34:17;;;;;;;25.70;14.65;;;0.20;99.90;;;;;;5035493;28;20136;-90
2022/01/12 06:36:44;;;;;;;32.05;15.70;;;0.20;99.90;;;;;;5035407;28;20051;-90
2022/01/12 06:39:17;;;;;;;27.48;16.52;;;0.20;99.90;;;;;;5034510;28;20068;-91
2022/01/12 06:41:44;;;;;;;35.43;17.17;;;0.30;99.90;;;;;;5034534;28;20049;-91
2022/01/12 06:44:15;;;;;;;38.13;18.60;;;0.30;99.90;;;;;;5034680;28;20383;-91
2022/01/12 06:46:43;;;;;;;32.53;19.27;;;0.30;99.90;;;;;;5034526;28;20049;-91
2022/01/12 06:49:11;;;;;;;27.20;15.20;;;0.30;99.90;;;;;;5034928;28;20061;-91
2022/01/12 06:51:39;;;;;;;31.80;16.10;;;0.40;99.90;;;;;;5051357;28;20049;-90
2022/01/12 06:54:06;;;;;;;28.50;16.63;;;0.30;99.90;;;;;;5043507;28;20054;-91
2022/01/12 06:56:33;;;;;;;27.75;16.20;;;0.40;99.90;;;;;;5034600;28;20128;-91
2022/01/12 06:59:00;;;;;;;27.15;16.27;;;0.40;99.90;;;;;;5034524;28;20098;-86
2022/01/12 07:01:27;;;;;;;42.03;19.30;;;0.40;99.90;;;;;;5034285;28;20045;-90
2022/01/12 07:03:54;;;;;;;28.73;16.73;;;0.30;99.90;;;;;;5033723;28;20054;-90
2022/01/12 07:06:21;;;;;;;32.33;17.25;;;0.20;99.90;;;;;;5034060;28;20490;-91
2022/01/12 07:08:48;;;;;;;29.48;15.13;;;0.20;99.90;;;;;;5034343;28;20083;-91
2022/01/12 07:11:15;;;;;;;32.25;15.93;;;0.20;99.90;;;;;;5034681;28;20049;-91
2022/01/12 07:13:41;;;;;;;26.55;14.70;;;0.20;99.90;;;;;;5033268;28;20049;-91
2022/01/12 07:16:08;;;;;;;27.50;15.82;;;0.10;99.90;;;;;;5034009;28;20061;-91
2022/01/12 07:18:35;;;;;;;29.45;15.63;;;0.10;99.90;;;;;;5033780;28;20072;-90
2022/01/12 07:21:02;;;;;;;32.42;15.73;;;0.10;99.90;;;;;;5033790;28;20433;-91
2022/01/12 07:23:29;;;;;;;38.63;17.13;;;0.10;99.90;;;;;;5033818;28;20049;-91
2022/01/12 07:25:56;;;;;;;24.63;15.15;;;0.10;99.90;;;;;;5033693;28;20470;-90
2022/01/12 07:28:23;;;;;;;31.20;17.75;;;0.20;99.90;;;;;;5034009;28;20054;-91
2022/01/12 07:30:50;;;;;;;29.15;16.13;;;0.30;99.90;;;;;;5034035;28;20045;-91
2022/01/12 07:33:17;;;;;;;36.13;18.23;;;0.40;99.90;;;;;;5033910;28;20056;-91
2022/01/12 07:35:44;;;;;;;31.30;17.13;;;0.40;99.90;;;;;;5034032;28;20504;-91
2022/01/12 07:38:11;;;;;;;32.70;17.67;;;0.50;99.90;;;;;;5034198;28;20128;-91
2022/01/12 07:40:37;;;;;;;34.15;18.38;;;0.60;99.90;;;;;;5034887;28;20056;-91
2022/01/12 07:43:06;;;;;;;41.70;19.17;;;0.60;99.90;;;;;;5036775;28;20049;-90
2022/01/12 07:45:34;;;;;;;40.83;19.40;;;0.70;99.90;;;;;;5042789;28;20490;-91
2022/01/12 07:48:02;;;;;;;36.53;20.98;;;0.60;99.90;;;;;;5045933;28;20055;-91
2022/01/12 07:50:28;;;;;;;39.08;20.40;;;0.80;99.90;;;;;;5040646;28;20128;-90
2022/01/12 07:52:55;;;;;;;34.67;20.30;;;0.90;99.90;;;;;;5033230;28;20128;-91
2022/01/12 07:55:23;;;;;;;25.33;16.95;;;1.00;99.90;;;;;;5033273;28;20053;-91
2022/01/12 07:57:51;;;;;;;29.23;15.52;;;1.00;99.90;;;;;;5033112;28;20046;-91
2022/01/12 08:00:20;;;;;;;23.00;15.05;;;1.00;99.90;;;;;;5033127;28;20067;-91
2022/01/12 08:02:49;;;;;;;23.55;13.90;;;1.00;99.90;;;;;;5033178;28;20069;-91
2022/01/12 08:05:18;;;;;;;20.70;13.32;;;1.10;99.90;;;;;;5033260;28;20041;-91
2022/01/12 08:07:46;;;;;;;19.23;12.57;;;1.10;99.90;;;;;;5054205;28;20085;-91
2022/01/12 08:10:13;;;;;;;19.55;13.38;;;1.00;99.90;;;;;;5039839;28;20072;-91
2022/01/12 08:12:40;;;;;;;25.13;15.20;;;1.10;99.90;;;;;;5032788;28;20053;-91
2022/01/12 08:15:09;;;;;;;17.90;13.52;;;1.10;99.90;;;;;;5043887;28;20146;-90
2022/01/12 08:17:36;;;;;;;18.80;12.52;;;1.10;99.90;;;;;;5042380;28;20474;-90
2022/01/12 08:20:05;;;;;;;17.50;12.23;;;1.20;99.90;;;;;;5041438;28;20550;-91
2022/01/12 08:22:32;;;;;;;22.92;13.52;;;1.20;99.90;;;;;;5046715;28;20485;-91
2022/01/12 08:24:59;;;;;;;20.42;12.27;;;1.30;99.90;;;;;;5032795;28;20133;-91
2022/01/12 08:27:26;;;;;;;26.05;15.35;;;1.40;99.90;;;;;;5031504;28;20049;-91
2022/01/12 08:29:59;;;;;;;23.80;15.30;;;1.50;99.90;;;;;;5032323;28;20055;-91
2022/01/12 08:32:27;;;;;;;24.08;15.05;;;1.60;99.90;;;;;;5032664;28;20553;-90
2022/01/12 08:34:55;;;;;;;24.63;16.92;;;1.80;99.90;;;;;;5032246;28;20077;-91
2022/01/12 08:37:22;;;;;;;23.25;15.82;;;1.90;99.90;;;;;;5032373;28;20136;-90
2022/01/12 08:39:50;;;;;;;26.55;18.38;;;2.10;99.90;;;;;;5032668;28;20049;-89
2022/01/12 08:42:18;;;;;;;28.50;17.75;;;2.20;99.90;;;;;;5031983;28;20564;-90
2022/01/12 08:44:46;;;;;;;23.85;14.60;;;2.40;99.90;;;;;;5032266;28;20050;-90
2022/01/12 08:47:13;;;;;;;18.83;11.35;;;2.50;99.90;;;;;;5032687;28;20049;-90
2022/01/12 08:49:39;;;;;;;20.42;12.35;;;2.50;99.90;;;;;;5032348;28;20128;-90
2022/01/12 08:52:07;;;;;;;10.35;8.00;;;2.60;99.90;;;;;;5032303;28;20053;-90
2022/01/12 08:54:34;;;;;;;10.88;7.55;;;2.70;99.90;;;;;;5031780;28;20391;-90
2022/01/12 08:57:01;;;;;;;9.77;7.18;;;2.70;99.90;;;;;;5032387;28;20494;-90
2022/01/12 08:59:27;;;;;;;14.15;9.20;;;2.70;99.90;;;;;;5032193;28;20064;-90
2022/01/12 09:01:54;;;;;;;10.13;7.65;;;2.60;99.90;;;;;;5032080;28;20128;-90
2022/01/12 09:04:21;;;;;;;11.40;7.00;;;2.60;99.90;;;;;;5032008;28;20046;-90
2022/01/12 09:06:50;;;;;;;11.63;8.60;;;2.50;99.90;;;;;;5031922;28;20061;-90
2022/01/12 09:09:17;;;;;;;13.23;9.30;;;2.40;99.90;;;;;;5032126;28;20520;-88
2022/01/12 09:11:44;;;;;;;16.88;10.68;;;2.00;99.90;;;;;;5031861;28;20063;-89
2022/01/12 09:14:11;;;;;;;30.05;21.13;;;1.90;99.90;;;;;;5032010;28;20084;-90
2022/01/12 09:16:38;;;;;;;49.28;31.42;;;1.60;99.90;;;;;;5032150;28;20136;-90
2022/01/12 09:19:05;;;;;;;38.40;25.48;;;1.40;99.90;;;;;;5032167;28;20053;-90
2022/01/12 09:21:33;;;;;;;21.83;14.50;;;1.30;99.90;;;;;;5037049;28;20037;-90
2022/01/12 09:23:59;;;;;;;18.42;12.98;;;1.10;99.90;;;;;;5048606;28;20056;-90
2022/01/12 09:26:26;;;;;;;20.50;13.57;;;1.00;99.90;;;;;;5033681;28;20405;-90
2022/01/12 09:28:53;;;;;;;19.25;13.75;;;1.10;99.90;;;;;;5032305;28;20132;-90
2022/01/12 09:31:20;;;;;;;25.83;16.67;;;1.20;99.90;;;;;;5032201;28;20047;-90
2022/01/12 09:33:49;;;;;;;26.55;17.50;;;1.30;99.90;;;;;;5031866;28;20549;-90
2022/01/12 09:36:16;;;;;;;18.02;12.32;;;1.50;99.90;;;;;;5033125;28;20107;-89
2022/01/12 09:38:43;;;;;;;19.45;11.65;;;1.50;99.90;;;;;;5035285;28;20516;-90
2022/01/12 09:41:10;;;;;;;23.38;13.93;;;1.50;99.90;;;;;;5035159;28;20049;-90
2022/01/12 09:43:38;;;;;;;24.45;14.52;;;1.70;99.90;;;;;;5035838;28;20051;-90
2022/01/12 09:46:07;;;;;;;16.52;11.98;;;1.80;99.90;;;;;;5035698;28;20053;-90
2022/01/12 09:48:36;;;;;;;15.30;10.23;;;2.20;99.90;;;;;;5036030;28;20057;-90
2022/01/12 09:51:06;;;;;;;14.18;9.10;;;2.50;99.90;;;;;;5036483;28;20052;-90
2022/01/12 09:53:35;;;;;;;10.27;7.53;;;2.90;99.90;;;;;;5035220;28;20069;-90
2022/01/12 09:56:16;;;;;;;14.77;7.93;;;3.50;99.90;;;;;;5035639;28;20072;-90
2022/01/12 09:58:44;;;;;;;8.43;6.22;;;4.00;99.90;;;;;;5035191;28;20167;-90
2022/01/12 10:01:11;;;;;;;9.50;5.97;;;4.40;99.90;;;;;;5034872;28;20060;-90
2022/01/12 10:03:38;;;;;;;5.25;4.75;;;4.70;99.90;;;;;;5034879;28;20115;-90
2022/01/12 10:06:16;;;;;;;6.78;5.70;;;5.10;99.90;;;;;;5037748;28;20072;-90
2022/01/12 10:08:43;;;;;;;5.65;4.97;;;5.30;99.90;;;;;;5040104;28;20080;-90
2022/01/12 10:11:12;;;;;;;5.97;4.70;;;5.40;99.90;;;;;;5034885;28;20478;-90
2022/01/12 10:13:40;;;;;;;6.30;4.85;;;5.40;99.90;;;;;;5040799;28;20124;-90
2022/01/12 10:16:12;;;;;;;8.95;6.25;;;5.40;99.90;;;;;;5039453;28;20081;-89
2022/01/12 10:18:50;;;;;;;15.13;9.65;;;5.20;99.90;;;;;;5046733;28;20486;-90
2022/01/12 10:21:36;;;;;;;12.13;7.90;;;5.40;99.90;;;;;;5034917;28;20096;-90
2022/01/12 10:24:06;;;;;;;15.55;10.15;;;5.60;99.90;;;;;;5035188;28;20053;-90
2022/01/12 10:26:41;;;;;;;15.45;9.90;;;5.40;99.90;;;;;;5034657;28;20041;-89
2022/01/12 10:29:18;;;;;;;12.63;7.18;;;5.60;99.90;;;;;;5034500;28;20068;-89
2022/01/12 10:31:47;;;;;;;13.18;8.25;;;5.70;99.90;;;;;;5034760;28;20402;-90
2022/01/12 10:34:20;;;;;;;11.52;7.00;;;5.50;99.90;;;;;;5034394;28;20095;-89
2022/01/12 10:36:48;;;;;;;11.02;6.63;;;5.30;99.90;;;;;;5037700;28;20049;-89
2022/01/12 10:39:16;;;;;;;7.65;5.70;;;5.30;99.90;;;;;;5051906;28;20050;-89
2022/01/12 10:42:02;;;;;;;8.48;5.78;;;5.60;99.90;;;;;;5035532;28;20514;-89
2022/01/12 10:44:35;;;;;;;11.38;6.53;;;5.50;99.90;;;;;;5033939;28;20119;-89
2022/01/12 10:47:21;;;;;;;14.05;7.95;;;5.60;99.90;;;;;;5034466;28;20045;-90
2022/01/12 10:49:53;;;;;;;9.00;5.95;;;5.90;99.90;;;;;;5033569;28;20505;-89
2022/01/12 10:52:22;;;;;;;14.37;6.90;;;6.10;99.90;;;;;;5034104;28;20067;-90
2022/01/12 10:54:50;;;;;;;9.20;6.20;;;6.20;99.90;;;;;;5034976;28;20288;-90
2022/01/12 10:57:23;;;;;;;7.53;5.35;;;6.40;99.90;;;;;;5034152;28;20139;-90
2022/01/12 11:00:10;;;;;;;7.70;4.57;;;6.50;99.90;;;;;;5035396;28;20052;-89
2022/01/12 11:02:39;;;;;;;4.18;3.78;;;6.70;99.90;;;;;;5033635;28;20049;-89
2022/01/12 11:05:07;;;;;;;3.78;3.47;;;6.90;99.90;;;;;;5033724;28;20050;-90
2022/01/12 11:07:35;;;;;;;4.30;3.90;;;6.90;99.90;;;;;;5034110;28;20076;-90
2022/01/12 11:10:05;;;;;;;6.13;4.93;;;6.70;99.90;;;;;;5033914;28;20046;-90
2022/01/12 11:12:35;;;;;;;4.35;4.00;;;6.60;99.90;;;;;;5033513;28;20076;-90
2022/01/12 11:15:14;;;;;;;10.00;4.85;;;6.50;99.90;;;;;;5033186;28;20046;-89
2022/01/12 11:17:43;;;;;;;5.00;4.50;;;6.50;99.90;;;;;;5033783;28;20053;-90
2022/01/12 11:20:15;;;;;;;7.30;3.88;;;6.60;99.90;;;;;;5033965;28;20099;-90
2022/01/12 11:23:08;;;;;;;4.10;3.63;;;6.60;99.90;;;;;;5033978;28;20053;-90
2022/01/12 11:25:46;;;;;;;5.63;3.83;;;6.60;99.90;;;;;;5033676;28;20052;-90
2022/01/12 11:28:23;;;;;;;3.80;3.50;;;6.80;99.90;;;;;;5034644;28;20053;-90
2022/01/12 11:30:50;;;;;;;4.90;4.43;;;6.80;99.90;;;;;;5034376;28;20116;-90
2022/01/12 11:33:23;;;;;;;5.38;4.28;;;7.10;99.90;;;;;;5034514;28;20119;-90
2022/01/12 11:35:52;;;;;;;6.85;4.22;;;7.50;99.90;;;;;;5033498;28;20149;-90
2022/01/12 11:38:30;;;;;;;4.03;3.72;;;8.40;99.90;;;;;;5034211;28;20458;-89
2022/01/12 11:41:11;;;;;;;6.05;4.07;;;8.90;99.90;;;;;;5033334;28;20136;-89
2022/01/12 11:43:43;;;;;;;5.40;4.50;;;9.20;99.90;;;;;;5032984;28;20140;-89
2022/01/12 11:46:17;;;;;;;5.13;4.60;;;9.70;99.90;;;;;;5033188;28;20061;-90
2022/01/12 11:48:50;;;;;;;5.20;3.97;;;9.90;99.90;;;;;;5033414;28;20100;-90
2022/01/12 11:51:20;;;;;;;7.28;4.47;;;9.40;99.90;;;;;;5033282;28;20136;-90
2022/01/12 11:53:54;;;;;;;4.70;4.30;;;8.80;99.90;;;;;;5049254;28;20941;-90
2022/01/12 11:56:25;;;;;;;6.97;4.30;;;8.50;99.90;;;;;;5037248;28;20045;-90
2022/01/12 11:58:53;;;;;;;4.93;4.20;;;8.20;99.90;;;;;;5033002;28;20055;-90
2022/01/12 12:01:22;;;;;;;4.80;3.70;;;8.50;99.90;;;;;;5033848;28;20045;-90
2022/01/12 12:04:00;;;;;;;4.00;3.63;;;9.10;99.90;;;;;;5032933;28;20060;-90
2022/01/12 12:06:28;;;;;;;5.10;4.13;;;8.90;99.90;;;;;;5032882;28;20159;-90
2022/01/12 12:09:00;;;;;;;4.55;3.50;;;8.30;99.90;;;;;;5032888;28;20132;-90
2022/01/12 12:11:29;;;;;;;4.18;3.58;;;7.90;99.90;;;;;;5032986;28;20053;-90
2022/01/12 12:14:16;;;;;;;4.75;4.22;;;7.70;99.90;;;;;;5032614;28;20049;-89
2022/01/12 12:16:43;;;;;;;6.07;3.90;;;7.60;99.90;;;;;;5034252;28;20087;-90
2022/01/12 12:19:10;;;;;;;5.22;3.67;;;7.40;99.90;;;;;;5032692;28;20056;-90
2022/01/12 12:21:37;;;;;;;6.28;4.47;;;7.40;99.90;;;;;;5033651;28;20482;-90
2022/01/12 12:24:09;;;;;;;4.53;3.85;;;7.50;99.90;;;;;;5032165;28;20065;-90
2022/01/12 12:26:52;;;;;;;5.20;4.10;;;7.50;99.90;;;;;;5032507;28;20104;-91
2022/01/12 12:29:26;;;;;;;3.97;3.55;;;7.40;99.90;;;;;;5032753;28;20063;-89
2022/01/12 12:31:56;;;;;;;4.82;4.20;;;7.20;99.90;;;;;;5032604;28;20053;-89
2022/01/12 12:34:25;;;;;;;5.05;3.92;;;7.10;99.90;;;;;;5032498;28;20128;-90
2022/01/12 12:37:01;;;;;;;11.43;4.78;;;6.80;99.90;;;;;;5032005;28;20532;-89
2022/01/12 12:39:32;;;;;;;5.68;4.88;;;6.80;99.90;;;;;;5033435;28;20132;-89
2022/01/12 12:42:00;;;;;;;5.55;4.25;;;6.80;99.90;;;;;;5032163;28;20054;-89
2022/01/12 12:44:30;;;;;;;8.35;5.55;;;6.80;99.90;;;;;;5032024;28;20100;-90
2022/01/12 12:47:08;;;;;;;4.85;4.32;;;6.80;99.90;;;;;;5035595;28;20047;-90
2022/01/12 12:49:51;;;;;;;7.65;4.47;;;6.50;99.90;;;;;;5035186;28;20128;-90
2022/01/12 12:52:29;;;;;;;7.85;4.20;;;6.50;99.90;;;;;;5031905;28;20069;-90
2022/01/12 12:54:58;;;;;;;6.63;4.57;;;6.70;99.90;;;;;;5032102;28;20104;-89
2022/01/12 12:57:27;;;;;;;8.82;4.97;;;6.60;99.90;;;;;;5032174;28;20087;-89
2022/01/12 13:00:13;;;;;;;5.38;4.63;;;6.80;99.90;;;;;;5032215;28;20045;-89
2022/01/12 13:02:46;;;;;;;8.85;5.75;;;6.90;99.90;;;;;;5032062;28;20060;-89
2022/01/12 13:05:16;;;;;;;8.65;7.50;;;6.90;99.90;;;;;;5032028;28;20064;-89
2022/01/12 13:07:45;;;;;;;9.43;5.47;;;6.90;99.90;;;;;;5037343;28;20060;-91
2022/01/12 13:10:15;;;;;;;4.65;4.18;;;6.90;99.90;;;;;;5047210;28;20125;-89
2022/01/12 13:12:47;;;;;;;6.78;4.00;;;6.90;99.90;;;;;;5038392;28;20132;-89
2022/01/12 13:15:26;;;;;;;7.25;4.65;;;7.00;99.90;;;;;;5031999;28;20049;-89
2022/01/12 13:18:01;;;;;;;14.35;6.18;;;7.00;99.90;;;;;;5035987;28;20080;-89
2022/01/12 13:23:22;;;;;;;5.72;3.60;;;7.00;99.90;;;;;;5036811;28;20139;-89
2022/01/12 13:25:53;;;;;;;5.63;4.13;;;6.90;99.90;;;;;;5035733;28;20057;-89
2022/01/12 13:28:21;;;;;;;5.72;4.13;;;6.90;99.90;;;;;;5035865;28;20049;-89
2022/01/12 13:30:54;;;;;;;9.50;4.65;;;6.80;99.90;;;;;;5035986;28;20045;-90
2022/01/12 13:33:30;;;;;;;6.22;4.40;;;6.90;99.90;;;;;;5031348;28;20046;-89
2022/01/12 13:35:58;;;;;;;11.90;4.43;;;6.80;99.90;;;;;;5036469;28;20114;-89
2022/01/12 13:38:31;;;;;;;8.07;4.50;;;6.80;99.90;;;;;;5035844;28;20401;-89
2022/01/12 13:41:12;;;;;;;10.80;4.00;;;6.80;99.90;;;;;;5035065;28;20059;-89
2022/01/12 13:43:41;;;;;;;4.70;3.88;;;6.70;99.90;;;;;;5035351;28;20057;-89
2022/01/12 13:46:13;;;;;;;4.25;3.50;;;6.50;99.90;;;;;;5036359;28;20060;-89
2022/01/12 13:49:07;;;;;;;5.07;3.58;;;6.50;99.90;;;;;;5036482;28;20049;-89
2022/01/12 13:51:37;;;;;;;13.98;4.78;;;6.50;99.90;;;;;;5035220;28;20068;-89
2022/01/12 13:54:14;;;;;;;5.78;4.32;;;6.60;99.90;;;;;;5035303;28;20050;-89
2022/01/12 13:56:49;;;;;;;5.18;4.32;;;6.50;99.90;;;;;;5036268;28;20053;-90
2022/01/12 13:59:18;;;;;;;3.70;3.30;;;6.50;99.90;;;;;;5035349;28;20051;-89
2022/01/12 14:01:46;;;;;;;6.03;3.13;;;6.50;99.90;;;;;;5036548;28;20050;-89
2022/01/12 14:04:24;;;;;;;5.38;3.38;;;6.40;99.90;;;;;;5035059;28;20509;-89
2022/01/12 14:06:53;;;;;;;4.68;3.42;;;6.30;99.90;;;;;;5036455;28;20045;-89
2022/01/12 14:09:28;;;;;;;9.98;4.25;;;6.20;99.90;;;;;;5035214;28;20524;-89
2022/01/12 14:11:56;;;;;;;10.02;3.83;;;6.10;99.90;;;;;;5035295;28;20050;-90